createdAt,value
2023-03-05T00:00:37.384Z,81.90
2023-03-05T00:03:00.606Z,81.70
2023-03-05T00:05:25.237Z,81.90
2023-03-05T00:07:48.944Z,82.00
2023-03-05T00:10:12.874Z,81.50
2023-03-05T00:12:36.129Z,81.60
2023-03-05T00:14:59.401Z,81.80
2023-03-05T00:17:22.722Z,81.90
2023-03-05T00:19:46.018Z,82.00
2023-03-05T00:22:10.701Z,82.30
2023-03-05T00:24:34.060Z,82.10
2023-03-05T00:26:57.358Z,82.20
2023-03-05T00:29:21.863Z,82.50
2023-03-05T00:31:45.287Z,82.60
2023-03-05T00:34:12.006Z,82.60
2023-03-05T00:36:36.295Z,82.60
2023-03-05T00:39:01.860Z,82.80
2023-03-05T00:41:25.137Z,82.90
2023-03-05T00:43:48.911Z,83.40
2023-03-05T00:46:13.166Z,83.40
2023-03-05T00:48:37.129Z,83.50
2023-03-05T00:51:00.406Z,83.60
2023-03-05T00:53:24.162Z,83.70
2023-03-05T00:55:49.156Z,83.80
2023-03-05T00:58:12.442Z,83.80
2023-03-05T01:00:35.835Z,83.50
2023-03-05T01:02:59.039Z,83.80
2023-03-05T01:05:23.063Z,83.80
2023-03-05T01:07:46.347Z,83.80
2023-03-05T01:10:13.863Z,83.70
2023-03-05T01:12:38.700Z,83.60
2023-03-05T01:15:02.643Z,83.80
2023-03-05T01:17:25.968Z,83.60
2023-03-05T01:19:49.520Z,83.70
2023-03-05T01:22:12.991Z,83.70
2023-03-05T01:24:36.301Z,83.60
2023-03-05T01:27:00.868Z,83.80
2023-03-05T01:29:25.614Z,83.70
2023-03-05T01:31:48.996Z,83.70
2023-03-05T01:34:12.414Z,83.60
2023-03-05T01:36:35.913Z,83.60
2023-03-05T01:38:59.685Z,83.50
2023-03-05T01:41:22.953Z,83.60
2023-03-05T01:43:47.786Z,83.50
2023-03-05T01:46:29.518Z,83.80
2023-03-05T01:48:59.800Z,83.70
2023-03-05T01:51:26.907Z,83.60
2023-03-05T01:53:50.619Z,83.60
2023-03-05T01:56:14.246Z,83.80
2023-03-05T01:58:39.740Z,83.80
2023-03-05T02:01:03.781Z,83.80
2023-03-05T02:03:28.440Z,83.70
2023-03-05T02:05:53.648Z,84.10
2023-03-05T02:08:19.827Z,84.10
2023-03-05T02:10:45.955Z,84.00
2023-03-05T02:13:12.637Z,84.40
2023-03-05T02:15:36.485Z,84.30
2023-03-05T02:18:01.274Z,84.50
2023-03-05T02:20:29.010Z,84.60
2023-03-05T02:22:54.097Z,84.50
2023-03-05T02:25:21.102Z,84.50
2023-03-05T02:27:51.803Z,84.50
2023-03-05T02:30:15.330Z,84.70
2023-03-05T02:32:38.589Z,85.00
2023-03-05T02:35:02.572Z,85.40
2023-03-05T02:37:25.979Z,85.50
2023-03-05T02:39:50.692Z,85.30
2023-03-05T02:42:14.152Z,85.40
2023-03-05T02:44:37.879Z,85.20
2023-03-05T02:47:01.656Z,85.00
2023-03-05T02:49:25.189Z,85.50
2023-03-05T02:51:48.696Z,85.50
2023-03-05T02:54:12.168Z,84.90
2023-03-05T02:56:38.212Z,84.60
2023-03-05T02:59:02.170Z,84.80
2023-03-05T03:01:28.131Z,84.50
2023-03-05T03:03:51.497Z,84.60
2023-03-05T03:06:14.734Z,85.00
2023-03-05T03:08:38.019Z,84.90
2023-03-05T03:11:07.829Z,85.10
2023-03-05T03:13:32.567Z,85.50
2023-03-05T03:16:03.969Z,85.70
2023-03-05T03:18:27.262Z,85.80
2023-03-05T03:20:50.636Z,85.80
2023-03-05T03:23:14.210Z,85.80
2023-03-05T03:25:37.678Z,86.10
2023-03-05T03:28:01.034Z,86.10
2023-03-05T03:30:25.671Z,86.00
2023-03-05T03:32:49.122Z,86.00
2023-03-05T03:35:13.750Z,86.10
2023-03-05T03:37:37.344Z,86.40
2023-03-05T03:40:00.615Z,86.50
2023-03-05T03:42:25.005Z,86.60
2023-03-05T03:44:48.700Z,86.40
2023-03-05T03:47:13.485Z,86.50
2023-03-05T03:49:37.109Z,86.40
2023-03-05T03:52:00.485Z,86.60
2023-03-05T03:54:24.386Z,86.40
2023-03-05T03:56:48.084Z,86.40
2023-03-05T03:59:12.581Z,86.40
2023-03-05T04:01:36.350Z,86.50
2023-03-05T04:04:01.138Z,86.60
2023-03-05T04:06:24.487Z,86.70
2023-03-05T04:08:47.777Z,86.80
2023-03-05T04:11:11.120Z,86.80
2023-03-05T04:13:34.589Z,86.90
2023-03-05T04:15:58.154Z,87.00
2023-03-05T04:18:21.491Z,87.00
2023-03-05T04:20:46.184Z,87.00
2023-03-05T04:23:09.529Z,87.00
2023-03-05T04:25:32.778Z,87.10
2023-03-05T04:27:56.195Z,87.00
2023-03-05T04:30:19.474Z,86.80
2023-03-05T04:32:43.072Z,86.70
2023-03-05T04:35:07.356Z,86.50
2023-03-05T04:37:32.011Z,86.50
2023-03-05T04:39:55.516Z,86.40
2023-03-05T04:42:20.052Z,86.40
2023-03-05T04:44:43.351Z,86.40
2023-03-05T04:47:07.090Z,86.40
2023-03-05T04:49:31.045Z,86.30
2023-03-05T04:51:54.312Z,86.30
2023-03-05T04:54:18.917Z,86.20
2023-03-05T04:56:42.231Z,86.20
2023-03-05T04:59:05.506Z,86.00
2023-03-05T05:01:28.859Z,85.90
2023-03-05T05:03:52.225Z,85.90
2023-03-05T05:06:15.495Z,85.70
2023-03-05T05:08:39.224Z,85.60
2023-03-05T05:11:06.796Z,85.60
2023-03-05T05:13:31.040Z,85.60
2023-03-05T05:15:54.664Z,85.70
2023-03-05T05:18:17.961Z,85.60
2023-03-05T05:20:41.456Z,85.50
2023-03-05T05:23:04.694Z,85.60
2023-03-05T05:25:27.840Z,85.90
2023-03-05T05:27:52.529Z,86.00
2023-03-05T05:30:16.343Z,86.40
2023-03-05T05:32:39.654Z,86.30
2023-03-05T05:35:03.807Z,86.30
2023-03-05T05:37:28.045Z,86.20
2023-03-05T05:39:51.480Z,86.20
2023-03-05T05:42:18.369Z,86.30
2023-03-05T05:44:43.389Z,86.10
2023-03-05T05:47:06.950Z,86.00
2023-03-05T05:49:30.252Z,85.90
2023-03-05T05:51:53.538Z,85.70
2023-03-05T05:54:17.183Z,85.70
2023-03-05T05:56:40.626Z,85.70
2023-03-05T05:59:04.011Z,85.80
2023-03-05T06:01:32.200Z,85.80
2023-03-05T06:03:55.812Z,85.70
2023-03-05T06:06:21.828Z,85.60
2023-03-05T06:08:45.638Z,85.50
2023-03-05T06:11:09.154Z,85.50
2023-03-05T06:13:32.569Z,85.40
2023-03-05T06:15:58.882Z,85.50
2023-03-05T06:18:23.686Z,85.40
2023-03-05T06:20:46.969Z,85.50
2023-03-05T06:23:10.179Z,85.50
2023-03-05T06:25:33.436Z,85.60
2023-03-05T06:27:56.644Z,85.60
2023-03-05T06:30:20.407Z,85.60
2023-03-05T06:32:43.600Z,85.50
2023-03-05T06:35:09.245Z,85.50
2023-03-05T06:37:33.450Z,85.60
2023-03-05T06:39:56.689Z,85.40
2023-03-05T06:42:20.081Z,85.80
2023-03-05T06:44:43.453Z,85.60
2023-03-05T06:47:07.086Z,85.60
2023-03-05T06:49:30.399Z,85.70
2023-03-05T06:51:55.092Z,86.00
2023-03-05T06:54:18.865Z,86.30
2023-03-05T06:56:44.362Z,86.40
2023-03-05T06:59:08.546Z,86.50
2023-03-05T07:01:31.872Z,86.50
2023-03-05T07:03:58.890Z,86.90
2023-03-05T07:06:23.543Z,87.00
2023-03-05T07:08:48.237Z,86.70
2023-03-05T07:11:12.081Z,87.00
2023-03-05T07:13:35.635Z,86.80
2023-03-05T07:15:58.997Z,87.20
2023-03-05T07:18:22.973Z,87.10
2023-03-05T07:20:46.223Z,87.00
2023-03-05T07:23:09.640Z,87.00
2023-03-05T07:25:38.191Z,86.80
2023-03-05T07:28:01.883Z,86.80
2023-03-05T07:30:25.304Z,86.80
2023-03-05T07:32:49.083Z,86.80
2023-03-05T07:35:12.880Z,86.80
2023-03-05T07:37:36.234Z,86.60
2023-03-05T07:40:00.031Z,86.60
2023-03-05T07:42:26.098Z,86.40
2023-03-05T07:45:03.985Z,86.30
2023-03-05T07:47:27.357Z,86.30
2023-03-05T07:49:51.322Z,86.30
2023-03-05T07:52:14.661Z,86.30
2023-03-05T07:54:40.850Z,86.10
2023-03-05T07:57:04.284Z,86.10
2023-03-05T07:59:28.905Z,86.10
2023-03-05T08:01:52.146Z,85.80
2023-03-05T08:04:15.496Z,85.90
2023-03-05T08:06:41.861Z,86.20
2023-03-05T08:09:05.260Z,86.10
2023-03-05T08:11:29.531Z,86.70
2023-03-05T08:13:52.888Z,87.00
2023-03-05T08:16:20.437Z,87.20
2023-03-05T08:18:44.151Z,87.80
2023-03-05T08:21:07.935Z,87.40
2023-03-05T08:23:31.867Z,87.60
2023-03-05T08:25:55.559Z,87.80
2023-03-05T08:28:19.761Z,87.70
2023-03-05T08:30:43.020Z,87.20
2023-03-05T08:33:07.712Z,87.10
2023-03-05T08:35:31.136Z,87.10
2023-03-05T08:37:54.452Z,86.90
2023-03-05T08:40:19.412Z,86.50
2023-03-05T08:42:42.742Z,86.20
2023-03-05T08:45:07.168Z,86.20
2023-03-05T08:47:30.703Z,86.20
2023-03-05T08:49:57.168Z,86.00
2023-03-05T08:52:20.456Z,86.40
2023-03-05T08:54:43.800Z,85.90
2023-03-05T08:57:07.461Z,85.70
2023-03-05T08:59:31.718Z,85.80
2023-03-05T09:01:55.215Z,85.80
2023-03-05T09:04:18.759Z,85.40
2023-03-05T09:06:43.393Z,85.40
2023-03-05T09:09:07.319Z,85.60
2023-03-05T09:11:30.775Z,85.30
2023-03-05T09:13:54.071Z,84.90
2023-03-05T09:16:20.013Z,85.00
2023-03-05T09:18:44.135Z,85.10
2023-03-05T09:21:08.268Z,84.70
2023-03-05T09:23:32.980Z,85.00
2023-03-05T09:25:56.242Z,84.70
2023-03-05T09:28:19.658Z,84.10
2023-03-05T09:30:43.264Z,84.50
2023-03-05T09:33:07.038Z,84.80
2023-03-05T09:35:30.896Z,84.00
2023-03-05T09:37:54.183Z,84.40
2023-03-05T09:40:22.377Z,84.30
2023-03-05T09:43:14.346Z,84.50
2023-03-05T09:45:43.287Z,83.90
2023-03-05T09:48:18.275Z,84.40
2023-03-05T09:50:46.753Z,84.30
2023-03-05T09:53:21.876Z,83.90
2023-03-05T09:55:49.737Z,83.90
2023-03-05T09:58:16.910Z,83.60
2023-03-05T10:00:45.028Z,83.70
2023-03-05T10:03:17.685Z,83.80
2023-03-05T10:06:00.407Z,83.10
2023-03-05T10:08:31.344Z,83.10
2023-03-05T10:10:56.557Z,83.80
2023-03-05T10:13:27.012Z,83.80
2023-03-05T10:16:04.188Z,82.90
2023-03-05T10:18:35.854Z,82.40
2023-03-05T10:21:00.827Z,81.40
2023-03-05T10:23:46.060Z,81.40
2023-03-05T10:26:24.588Z,80.70
2023-03-05T10:28:59.353Z,81.10
2023-03-05T10:31:38.574Z,81.60
2023-03-05T10:34:37.424Z,80.90
2023-03-05T10:37:20.260Z,81.70
2023-03-05T10:40:12.952Z,81.70
2023-03-05T10:42:46.034Z,80.30
2023-03-05T10:45:18.645Z,81.10
2023-03-05T10:47:48.478Z,80.50
2023-03-05T10:50:19.062Z,79.60
2023-03-05T10:52:46.761Z,79.90
2023-03-05T10:55:16.597Z,79.70
2023-03-05T10:57:41.325Z,79.60
2023-03-05T11:00:19.803Z,80.10
2023-03-05T11:02:58.255Z,79.90
2023-03-05T11:05:47.596Z,80.10
2023-03-05T11:08:28.432Z,80.10
2023-03-05T11:11:11.940Z,80.20
2023-03-05T11:13:40.434Z,80.10
2023-03-05T11:16:06.110Z,79.40
2023-03-05T11:18:34.255Z,79.70
2023-03-05T11:21:10.501Z,80.40
2023-03-05T11:23:33.757Z,81.30
2023-03-05T11:26:02.045Z,80.50
2023-03-05T11:28:33.211Z,80.30
2023-03-05T11:31:02.792Z,79.70
2023-03-05T11:33:26.799Z,78.60
2023-03-05T11:35:53.100Z,80.30
2023-03-05T11:38:21.160Z,78.30
2023-03-05T11:40:44.506Z,79.10
2023-03-05T11:43:07.810Z,78.90
2023-03-05T11:45:34.056Z,80.20
2023-03-05T11:48:03.925Z,78.50
2023-03-05T11:50:29.890Z,79.10
2023-03-05T11:52:56.980Z,77.80
2023-03-05T11:55:23.562Z,76.60
2023-03-05T11:57:54.735Z,76.70
2023-03-05T12:00:32.630Z,76.80
2023-03-05T12:03:00.919Z,77.40
2023-03-05T12:05:24.298Z,77.20
2023-03-05T12:07:51.629Z,77.90
2023-03-05T12:10:19.129Z,78.30
2023-03-05T12:12:50.105Z,79.80
2023-03-05T12:15:42.620Z,79.90
2023-03-05T12:18:19.200Z,79.80
2023-03-05T12:20:50.734Z,79.40
2023-03-05T12:23:15.900Z,79.00
2023-03-05T12:25:48.856Z,78.30
2023-03-05T12:28:16.322Z,79.10
2023-03-05T12:31:02.140Z,78.60
2023-03-05T12:33:37.860Z,78.40
2023-03-05T12:36:37.804Z,77.80
2023-03-05T12:39:01.425Z,77.90
2023-03-05T12:41:45.592Z,76.70
2023-03-05T12:44:26.707Z,77.30
2023-03-05T12:47:19.327Z,75.90
2023-03-05T12:49:47.802Z,76.00
2023-03-05T12:52:24.989Z,75.40
2023-03-05T12:55:16.873Z,75.80
2023-03-05T12:57:40.846Z,74.90
2023-03-05T13:00:10.825Z,75.30
2023-03-05T13:02:38.199Z,76.00
2023-03-05T13:05:09.566Z,75.10
2023-03-05T13:07:32.914Z,75.90
2023-03-05T13:09:58.421Z,75.20
2023-03-05T13:12:22.312Z,75.50
2023-03-05T13:14:47.806Z,75.20
2023-03-05T13:17:38.031Z,75.50
2023-03-05T13:20:07.210Z,75.70
2023-03-05T13:22:31.108Z,77.50
2023-03-05T13:25:15.286Z,79.60
2023-03-05T13:27:38.599Z,81.30
2023-03-05T13:30:01.875Z,83.70
2023-03-05T13:32:28.654Z,84.30
2023-03-05T13:34:55.032Z,85.20
2023-03-05T13:37:22.088Z,85.30
2023-03-05T13:39:50.936Z,86.00
2023-03-05T13:42:20.128Z,85.80
2023-03-05T13:44:43.860Z,85.00
2023-03-05T13:47:17.996Z,82.50
2023-03-05T13:49:41.456Z,83.70
2023-03-05T13:52:06.061Z,83.60
2023-03-05T13:54:32.008Z,83.10
2023-03-05T13:56:58.833Z,84.10
2023-03-05T13:59:24.629Z,83.70
2023-03-05T14:01:49.395Z,83.30
2023-03-05T14:04:22.534Z,82.30
2023-03-05T14:06:50.961Z,83.10
2023-03-05T14:09:23.066Z,82.50
2023-03-05T14:12:00.051Z,82.70
2023-03-05T14:14:24.872Z,82.90
2023-03-05T14:16:48.211Z,82.60
2023-03-05T14:19:35.543Z,82.50
2023-03-05T14:21:58.992Z,83.30
2023-03-05T14:24:26.901Z,82.70
2023-03-05T14:26:56.501Z,82.30
2023-03-05T14:29:23.656Z,82.70
2023-03-05T14:31:50.860Z,82.00
2023-03-05T14:34:26.872Z,82.30
2023-03-05T14:36:52.136Z,82.60
2023-03-05T14:39:47.506Z,82.00
2023-03-05T14:42:26.752Z,81.90
2023-03-05T14:44:50.076Z,80.90
2023-03-05T14:47:13.299Z,80.50
2023-03-05T14:49:37.057Z,80.80
2023-03-05T14:52:00.316Z,80.10
2023-03-05T14:54:26.396Z,78.70
2023-03-05T14:56:50.603Z,80.20
2023-03-05T14:59:15.280Z,79.70
2023-03-05T15:01:38.643Z,80.50
2023-03-05T15:04:02.070Z,79.90
2023-03-05T15:06:33.038Z,79.50
2023-03-05T15:08:56.343Z,78.40
2023-03-05T15:11:22.570Z,79.00
2023-03-05T15:13:46.048Z,79.10
2023-03-05T15:16:16.565Z,78.70
2023-03-05T15:18:39.833Z,79.50
2023-03-05T15:21:03.299Z,80.30
2023-03-05T15:23:28.268Z,79.50
2023-03-05T15:25:52.045Z,79.70
2023-03-05T15:28:15.768Z,79.90
2023-03-05T15:30:42.661Z,79.30
2023-03-05T15:33:10.604Z,79.40
2023-03-05T15:35:34.482Z,79.50
2023-03-05T15:37:58.657Z,79.60
2023-03-05T15:40:22.778Z,79.30
2023-03-05T15:42:46.089Z,79.80
2023-03-05T15:45:10.435Z,80.50
2023-03-05T15:47:33.805Z,78.90
2023-03-05T15:49:58.910Z,79.70
2023-03-05T15:52:22.317Z,79.10
2023-03-05T15:54:45.809Z,79.40
2023-03-05T15:57:12.169Z,79.40
2023-03-05T15:59:35.365Z,79.30
2023-03-05T16:01:58.819Z,79.50
2023-03-05T16:04:22.126Z,78.80
2023-03-05T16:06:48.670Z,78.20
2023-03-05T16:09:12.281Z,78.50
2023-03-05T16:11:39.250Z,78.50
2023-03-05T16:14:06.001Z,79.40
2023-03-05T16:16:29.997Z,79.00
2023-03-05T16:18:53.487Z,78.90
2023-03-05T16:21:16.957Z,79.60
2023-03-05T16:23:41.731Z,79.70
2023-03-05T16:26:05.450Z,79.40
2023-03-05T16:28:28.669Z,79.80
2023-03-05T16:30:55.743Z,80.50
2023-03-05T16:33:19.012Z,80.20
2023-03-05T16:35:42.279Z,80.00
2023-03-05T16:38:06.952Z,79.70
2023-03-05T16:40:56.594Z,79.60
2023-03-05T16:43:15.349Z,79.80
2023-03-05T16:45:38.701Z,80.00
2023-03-05T16:48:02.258Z,80.00
2023-03-05T16:50:25.787Z,79.60
2023-03-05T16:52:49.174Z,79.80
2023-03-05T16:55:12.509Z,80.00
2023-03-05T16:57:39.521Z,79.80
2023-03-05T17:00:04.137Z,79.80
2023-03-05T17:02:27.385Z,80.10
2023-03-05T17:04:50.670Z,79.90
2023-03-05T17:07:14.324Z,80.10
2023-03-05T17:09:38.371Z,79.90
2023-03-05T17:12:01.732Z,80.00
2023-03-05T17:14:26.278Z,80.00
2023-03-05T17:16:49.899Z,80.00
2023-03-05T17:19:13.530Z,80.10
2023-03-05T17:21:37.027Z,80.20
2023-03-05T17:24:00.785Z,80.10
2023-03-05T17:26:24.173Z,80.20
2023-03-05T17:28:48.123Z,80.00
2023-03-05T17:31:14.400Z,80.40
2023-03-05T17:33:39.020Z,80.70
2023-03-05T17:36:02.867Z,80.30
2023-03-05T17:38:26.724Z,80.30
2023-03-05T17:40:50.020Z,79.80
2023-03-05T17:43:13.393Z,80.50
2023-03-05T17:45:37.320Z,79.80
2023-03-05T17:48:02.035Z,79.80
2023-03-05T17:50:25.890Z,80.00
2023-03-05T17:52:49.654Z,80.20
2023-03-05T17:55:17.337Z,80.00
2023-03-05T17:57:42.897Z,80.70
2023-03-05T18:00:08.420Z,80.20
2023-03-05T18:02:35.381Z,80.10
2023-03-05T18:05:00.578Z,79.70
2023-03-05T18:07:24.357Z,79.70
2023-03-05T18:09:47.612Z,80.40
2023-03-05T18:12:10.889Z,79.70
2023-03-05T18:14:34.391Z,79.40
2023-03-05T18:16:59.066Z,79.80
2023-03-05T18:19:22.779Z,80.20
2023-03-05T18:21:47.641Z,79.90
2023-03-05T18:24:11.530Z,80.00
2023-03-05T18:26:34.914Z,80.10
2023-03-05T18:28:58.303Z,80.30
2023-03-05T18:31:21.713Z,80.20
2023-03-05T18:33:45.139Z,80.30
2023-03-05T18:36:10.804Z,80.20
2023-03-05T18:38:35.541Z,80.50
2023-03-05T18:41:03.212Z,80.50
2023-03-05T18:43:26.577Z,80.70
2023-03-05T18:45:51.031Z,80.70
2023-03-05T18:48:14.374Z,80.80
2023-03-05T18:50:37.754Z,80.80
2023-03-05T18:53:01.057Z,81.10
2023-03-05T18:55:29.678Z,81.10
2023-03-05T18:57:53.724Z,81.30
2023-03-05T19:00:19.542Z,81.30
2023-03-05T19:02:43.292Z,81.30
2023-03-05T19:05:07.350Z,81.70
2023-03-05T19:07:30.870Z,81.70
2023-03-05T19:09:58.937Z,81.80
2023-03-05T19:12:30.853Z,81.70
2023-03-05T19:14:54.152Z,81.70
2023-03-05T19:17:17.992Z,81.90
2023-03-05T19:19:42.782Z,81.90
2023-03-05T19:22:06.020Z,81.80
2023-03-05T19:24:31.675Z,82.30
2023-03-05T19:26:56.702Z,82.40
2023-03-05T19:29:21.482Z,82.50
2023-03-05T19:31:44.954Z,82.80
2023-03-05T19:34:09.214Z,82.80
2023-03-05T19:36:32.875Z,82.90
2023-03-05T19:38:56.416Z,82.90
2023-03-05T19:41:21.703Z,82.80
2023-03-05T19:43:45.219Z,83.10
2023-03-05T19:46:10.472Z,83.30
2023-03-05T19:48:35.434Z,83.20
2023-03-05T19:50:58.921Z,83.50
2023-03-05T19:53:22.219Z,83.70
2023-03-05T19:55:45.608Z,84.10
2023-03-05T19:58:08.940Z,84.00
2023-03-05T20:00:32.439Z,84.20
2023-03-05T20:02:57.141Z,84.50
2023-03-05T20:05:23.014Z,84.70
2023-03-05T20:07:46.334Z,84.70
2023-03-05T20:10:11.917Z,84.70
2023-03-05T20:12:36.400Z,84.70
2023-03-05T20:14:59.976Z,84.90
2023-03-05T20:17:23.381Z,85.20
2023-03-05T20:19:48.145Z,85.30
2023-03-05T20:22:11.554Z,85.50
2023-03-05T20:24:34.969Z,85.80
2023-03-05T20:26:58.327Z,86.10
2023-03-05T20:29:22.084Z,86.10
2023-03-05T20:31:45.625Z,86.30
2023-03-05T20:34:13.245Z,86.60
2023-03-05T20:36:38.187Z,86.90
2023-03-05T20:39:02.853Z,86.80
2023-03-05T20:41:26.530Z,86.90
2023-03-05T20:43:52.018Z,86.50
2023-03-05T20:46:18.447Z,86.60
2023-03-05T20:48:41.841Z,86.80
2023-03-05T20:51:14.278Z,87.00
2023-03-05T20:53:39.192Z,87.00
2023-03-05T20:56:02.466Z,86.70
2023-03-05T20:58:25.796Z,86.60
2023-03-05T21:00:49.231Z,86.60
2023-03-05T21:03:13.257Z,86.20
2023-03-05T21:05:37.868Z,85.90
2023-03-05T21:08:04.195Z,85.90
2023-03-05T21:10:29.617Z,85.90
2023-03-05T21:12:55.220Z,85.80
2023-03-05T21:15:22.420Z,85.50
2023-03-05T21:17:45.882Z,85.90
2023-03-05T21:20:12.821Z,85.90
2023-03-05T21:22:36.241Z,86.10
2023-03-05T21:25:13.431Z,86.60
2023-03-05T21:27:38.290Z,86.50
2023-03-05T21:30:01.681Z,86.50
2023-03-05T21:32:25.116Z,86.60
2023-03-05T21:34:48.435Z,87.00
2023-03-05T21:37:11.921Z,87.40
2023-03-05T21:39:35.285Z,87.50
2023-03-05T21:41:59.516Z,87.60
2023-03-05T21:44:24.227Z,87.70
2023-03-05T21:46:47.471Z,87.90
2023-03-05T21:49:10.976Z,88.00
2023-03-05T21:51:40.979Z,88.20
2023-03-05T21:54:04.658Z,88.30
2023-03-05T21:56:30.947Z,88.40
2023-03-05T21:58:55.079Z,88.40
2023-03-05T22:01:21.789Z,88.50
2023-03-05T22:03:45.109Z,88.50
2023-03-05T22:06:11.685Z,88.60
2023-03-05T22:08:35.368Z,88.80
2023-03-05T22:10:58.686Z,88.90
2023-03-05T22:13:22.211Z,88.80
2023-03-05T22:15:48.785Z,88.90
2023-03-05T22:18:15.322Z,89.10
2023-03-05T22:20:38.868Z,89.20
2023-03-05T22:23:02.269Z,89.30
2023-03-05T22:25:25.555Z,89.30
2023-03-05T22:27:48.990Z,89.30
2023-03-05T22:30:14.764Z,89.30
2023-03-05T22:32:39.076Z,89.40
2023-03-05T22:35:06.107Z,89.30
2023-03-05T22:37:30.288Z,89.50
2023-03-05T22:39:55.966Z,89.50
2023-03-05T22:42:19.414Z,89.20
2023-03-05T22:44:42.703Z,88.90
2023-03-05T22:47:06.805Z,89.00
2023-03-05T22:49:30.062Z,89.00
2023-03-05T22:51:54.755Z,89.10
2023-03-05T22:54:18.031Z,89.30
2023-03-05T22:56:41.469Z,89.50
2023-03-05T22:59:04.677Z,89.40
2023-03-05T23:01:28.460Z,89.60
2023-03-05T23:03:58.749Z,89.60
2023-03-05T23:06:22.242Z,89.70
2023-03-05T23:08:46.921Z,89.80
2023-03-05T23:11:12.714Z,89.60
2023-03-05T23:13:36.128Z,89.70
2023-03-05T23:15:59.463Z,89.70
2023-03-05T23:18:22.774Z,89.80
2023-03-05T23:20:46.168Z,89.80
2023-03-05T23:23:09.670Z,89.70
2023-03-05T23:25:36.541Z,89.70
2023-03-05T23:28:01.030Z,89.50
2023-03-05T23:30:25.170Z,89.70
2023-03-05T23:32:52.297Z,89.70
2023-03-05T23:35:18.203Z,89.80
2023-03-05T23:37:41.711Z,89.80
2023-03-05T23:40:07.093Z,89.70
2023-03-05T23:42:32.896Z,89.90
2023-03-05T23:44:56.430Z,89.90
2023-03-05T23:47:19.730Z,89.90
2023-03-05T23:49:43.050Z,89.90
2023-03-05T23:52:07.189Z,89.80
2023-03-05T23:54:30.539Z,89.70
2023-03-05T23:56:53.991Z,90.00
2023-03-05T23:59:18.799Z,90.00
